sensor_id;sensor_type;location;lat;lon;timestamp;temperature;humidity
3868;DHT22;1949;48.152;11.528;2022-12-22T00:00:10;12.10;53.70
3868;DHT22;1949;48.152;11.528;2022-12-22T00:02:55;12.10;53.60
3868;DHT22;1949;48.152;11.528;2022-12-22T00:05:51;12.10;53.70
3868;DHT22;1949;48.152;11.528;2022-12-22T00:08:35;12.10;53.70
3868;DHT22;1949;48.152;11.528;2022-12-22T00:11:19;12.00;53.70
3868;DHT22;1949;48.152;11.528;2022-12-22T00:14:16;12.10;53.90
3868;DHT22;1949;48.152;11.528;2022-12-22T00:17:01;12.00;53.80
3868;DHT22;1949;48.152;11.528;2022-12-22T00:19:55;12.10;53.80
3868;DHT22;1949;48.152;11.528;2022-12-22T00:22:46;12.10;53.70
3868;DHT22;1949;48.152;11.528;2022-12-22T00:25:30;12.10;53.70
3868;DHT22;1949;48.152;11.528;2022-12-22T00:28:15;12.10;53.70
3868;DHT22;1949;48.152;11.528;2022-12-22T00:31:01;12.10;53.70
3868;DHT22;1949;48.152;11.528;2022-12-22T00:33:48;12.10;53.70
3868;DHT22;1949;48.152;11.528;2022-12-22T00:36:38;12.10;53.70
3868;DHT22;1949;48.152;11.528;2022-12-22T00:39:24;12.10;53.60
3868;DHT22;1949;48.152;11.528;2022-12-22T00:42:18;12.10;53.60
3868;DHT22;1949;48.152;11.528;2022-12-22T00:45:05;12.20;53.70
3868;DHT22;1949;48.152;11.528;2022-12-22T00:47:50;12.20;53.60
3868;DHT22;1949;48.152;11.528;2022-12-22T00:50:35;12.20;53.60
3868;DHT22;1949;48.152;11.528;2022-12-22T00:53:19;12.20;53.50
3868;DHT22;1949;48.152;11.528;2022-12-22T00:56:11;12.20;53.50
3868;DHT22;1949;48.152;11.528;2022-12-22T00:59:20;12.20;53.50
3868;DHT22;1949;48.152;11.528;2022-12-22T01:02:06;12.20;53.40
3868;DHT22;1949;48.152;11.528;2022-12-22T01:05:00;12.20;53.40
3868;DHT22;1949;48.152;11.528;2022-12-22T01:07:47;12.20;53.30
3868;DHT22;1949;48.152;11.528;2022-12-22T01:10:31;12.20;53.30
3868;DHT22;1949;48.152;11.528;2022-12-22T01:13:18;12.10;53.30
3868;DHT22;1949;48.152;11.528;2022-12-22T01:16:08;12.20;53.30
3868;DHT22;1949;48.152;11.528;2022-12-22T01:18:54;12.20;53.30
3868;DHT22;1949;48.152;11.528;2022-12-22T01:21:51;12.20;53.30
3868;DHT22;1949;48.152;11.528;2022-12-22T01:24:35;12.20;53.30
3868;DHT22;1949;48.152;11.528;2022-12-22T01:27:22;12.20;53.10
3868;DHT22;1949;48.152;11.528;2022-12-22T01:30:07;12.20;53.10
3868;DHT22;1949;48.152;11.528;2022-12-22T01:32:58;12.10;53.10
3868;DHT22;1949;48.152;11.528;2022-12-22T01:35:49;12.20;53.10
3868;DHT22;1949;48.152;11.528;2022-12-22T01:38:33;12.10;53.10
3868;DHT22;1949;48.152;11.528;2022-12-22T01:41:19;12.00;53.10
3868;DHT22;1949;48.152;11.528;2022-12-22T01:44:14;12.00;53.00
3868;DHT22;1949;48.152;11.528;2022-12-22T01:47:29;12.00;53.00
3868;DHT22;1949;48.152;11.528;2022-12-22T01:50:19;12.00;53.10
3868;DHT22;1949;48.152;11.528;2022-12-22T01:53:20;12.00;53.10
3868;DHT22;1949;48.152;11.528;2022-12-22T01:56:11;12.00;53.10
3868;DHT22;1949;48.152;11.528;2022-12-22T01:59:01;12.00;53.10
3868;DHT22;1949;48.152;11.528;2022-12-22T02:01:52;12.00;53.00
3868;DHT22;1949;48.152;11.528;2022-12-22T02:04:45;12.00;53.00
3868;DHT22;1949;48.152;11.528;2022-12-22T02:14:09;12.00;53.00
3868;DHT22;1949;48.152;11.528;2022-12-22T02:17:20;12.00;53.10
3868;DHT22;1949;48.152;11.528;2022-12-22T02:20:39;12.00;53.00
3868;DHT22;1949;48.152;11.528;2022-12-22T02:26:54;12.00;52.90
3868;DHT22;1949;48.152;11.528;2022-12-22T02:29:56;12.00;52.90
3868;DHT22;1949;48.152;11.528;2022-12-22T02:33:00;12.00;52.90
3868;DHT22;1949;48.152;11.528;2022-12-22T02:39:29;12.00;52.90
3868;DHT22;1949;48.152;11.528;2022-12-22T02:42:34;12.00;52.90
3868;DHT22;1949;48.152;11.528;2022-12-22T02:45:45;12.00;52.90
3868;DHT22;1949;48.152;11.528;2022-12-22T02:48:53;11.90;52.80
3868;DHT22;1949;48.152;11.528;2022-12-22T02:51:45;11.90;52.80
3868;DHT22;1949;48.152;11.528;2022-12-22T02:54:39;11.90;52.80
3868;DHT22;1949;48.152;11.528;2022-12-22T02:57:25;11.90;52.80
3868;DHT22;1949;48.152;11.528;2022-12-22T03:00:14;11.90;52.70
3868;DHT22;1949;48.152;11.528;2022-12-22T03:03:06;11.90;52.70
3868;DHT22;1949;48.152;11.528;2022-12-22T03:05:56;11.90;52.80
3868;DHT22;1949;48.152;11.528;2022-12-22T03:08:41;11.90;52.80
3868;DHT22;1949;48.152;11.528;2022-12-22T03:11:27;11.90;52.80
3868;DHT22;1949;48.152;11.528;2022-12-22T03:14:11;11.90;52.70
3868;DHT22;1949;48.152;11.528;2022-12-22T03:16:58;11.90;52.70
3868;DHT22;1949;48.152;11.528;2022-12-22T03:19:42;11.80;52.60
3868;DHT22;1949;48.152;11.528;2022-12-22T03:22:27;11.80;52.70
3868;DHT22;1949;48.152;11.528;2022-12-22T03:25:22;11.80;52.80
3868;DHT22;1949;48.152;11.528;2022-12-22T03:28:07;11.80;52.80
3868;DHT22;1949;48.152;11.528;2022-12-22T03:30:37;11.80;52.90
3868;DHT22;1949;48.152;11.528;2022-12-22T03:33:03;11.80;52.90
3868;DHT22;1949;48.152;11.528;2022-12-22T03:35:29;11.80;52.90
3868;DHT22;1949;48.152;11.528;2022-12-22T03:38:09;11.90;53.00
3868;DHT22;1949;48.152;11.528;2022-12-22T03:40:34;11.90;53.10
3868;DHT22;1949;48.152;11.528;2022-12-22T03:43:14;11.90;53.10
3868;DHT22;1949;48.152;11.528;2022-12-22T03:46:00;11.90;53.10
3868;DHT22;1949;48.152;11.528;2022-12-22T03:49:04;12.00;53.10
3868;DHT22;1949;48.152;11.528;2022-12-22T03:54:08;12.00;53.10
3868;DHT22;1949;48.152;11.528;2022-12-22T03:56:44;12.10;53.20
3868;DHT22;1949;48.152;11.528;2022-12-22T03:59:13;12.10;53.10
3868;DHT22;1949;48.152;11.528;2022-12-22T04:01:50;12.10;53.30
3868;DHT22;1949;48.152;11.528;2022-12-22T04:04:44;12.10;53.20
3868;DHT22;1949;48.152;11.528;2022-12-22T04:07:10;12.10;53.20
3868;DHT22;1949;48.152;11.528;2022-12-22T04:09:47;12.10;53.20
3868;DHT22;1949;48.152;11.528;2022-12-22T04:12:51;12.10;53.30
3868;DHT22;1949;48.152;11.528;2022-12-22T04:15:29;12.10;53.30
3868;DHT22;1949;48.152;11.528;2022-12-22T04:18:03;12.10;53.30
3868;DHT22;1949;48.152;11.528;2022-12-22T04:20:29;12.10;53.40
3868;DHT22;1949;48.152;11.528;2022-12-22T04:22:57;12.10;53.40
3868;DHT22;1949;48.152;11.528;2022-12-22T04:25:24;12.10;53.50
3868;DHT22;1949;48.152;11.528;2022-12-22T04:27:53;12.10;53.50
3868;DHT22;1949;48.152;11.528;2022-12-22T04:30:19;12.10;53.50
3868;DHT22;1949;48.152;11.528;2022-12-22T04:32:48;12.00;53.50
3868;DHT22;1949;48.152;11.528;2022-12-22T04:35:15;12.00;53.50
3868;DHT22;1949;48.152;11.528;2022-12-22T04:37:57;12.00;53.70
3868;DHT22;1949;48.152;11.528;2022-12-22T04:40:28;12.10;53.80
3868;DHT22;1949;48.152;11.528;2022-12-22T04:42:59;12.10;53.90
3868;DHT22;1949;48.152;11.528;2022-12-22T04:45:27;12.10;53.90
3868;DHT22;1949;48.152;11.528;2022-12-22T04:48:02;12.10;53.80
3868;DHT22;1949;48.152;11.528;2022-12-22T04:51:02;12.10;53.90
3868;DHT22;1949;48.152;11.528;2022-12-22T04:53:35;12.20;53.90
3868;DHT22;1949;48.152;11.528;2022-12-22T04:56:07;12.20;53.90
3868;DHT22;1949;48.152;11.528;2022-12-22T04:58:34;12.20;53.90
3868;DHT22;1949;48.152;11.528;2022-12-22T05:01:16;12.20;53.90
3868;DHT22;1949;48.152;11.528;2022-12-22T05:03:51;12.20;53.90
3868;DHT22;1949;48.152;11.528;2022-12-22T05:06:16;12.30;54.00
3868;DHT22;1949;48.152;11.528;2022-12-22T05:08:45;12.30;53.90
3868;DHT22;1949;48.152;11.528;2022-12-22T05:11:14;12.30;53.90
3868;DHT22;1949;48.152;11.528;2022-12-22T05:13:41;12.30;54.00
3868;DHT22;1949;48.152;11.528;2022-12-22T05:16:11;12.30;54.00
3868;DHT22;1949;48.152;11.528;2022-12-22T05:18:37;12.40;54.00
3868;DHT22;1949;48.152;11.528;2022-12-22T05:21:19;12.40;54.00
3868;DHT22;1949;48.152;11.528;2022-12-22T05:23:51;12.40;53.90
3868;DHT22;1949;48.152;11.528;2022-12-22T05:26:29;12.40;53.90
3868;DHT22;1949;48.152;11.528;2022-12-22T05:28:55;12.40;53.80
3868;DHT22;1949;48.152;11.528;2022-12-22T05:31:24;12.40;53.80
3868;DHT22;1949;48.152;11.528;2022-12-22T05:33:51;12.40;53.90
3868;DHT22;1949;48.152;11.528;2022-12-22T05:36:29;12.40;53.80
3868;DHT22;1949;48.152;11.528;2022-12-22T05:38:56;12.40;53.90
3868;DHT22;1949;48.152;11.528;2022-12-22T05:41:23;12.40;53.90
3868;DHT22;1949;48.152;11.528;2022-12-22T05:43:49;12.40;53.80
3868;DHT22;1949;48.152;11.528;2022-12-22T05:46:15;12.40;53.80
3868;DHT22;1949;48.152;11.528;2022-12-22T05:48:49;12.40;53.80
3868;DHT22;1949;48.152;11.528;2022-12-22T05:51:23;12.40;53.80
3868;DHT22;1949;48.152;11.528;2022-12-22T05:53:52;12.40;53.80
3868;DHT22;1949;48.152;11.528;2022-12-22T05:56:22;12.50;53.80
3868;DHT22;1949;48.152;11.528;2022-12-22T05:58:48;12.40;53.70
3868;DHT22;1949;48.152;11.528;2022-12-22T06:01:24;12.40;53.80
3868;DHT22;1949;48.152;11.528;2022-12-22T06:03:55;12.40;53.70
3868;DHT22;1949;48.152;11.528;2022-12-22T06:06:21;12.50;53.70
3868;DHT22;1949;48.152;11.528;2022-12-22T06:08:49;12.50;53.70
3868;DHT22;1949;48.152;11.528;2022-12-22T06:11:15;12.50;53.60
3868;DHT22;1949;48.152;11.528;2022-12-22T06:13:44;12.50;53.70
3868;DHT22;1949;48.152;11.528;2022-12-22T06:16:10;12.50;53.60
3868;DHT22;1949;48.152;11.528;2022-12-22T06:18:41;12.60;53.50
3868;DHT22;1949;48.152;11.528;2022-12-22T06:21:07;12.50;53.40
3868;DHT22;1949;48.152;11.528;2022-12-22T06:23:32;12.50;53.40
3868;DHT22;1949;48.152;11.528;2022-12-22T06:26:00;12.50;53.40
3868;DHT22;1949;48.152;11.528;2022-12-22T06:28:32;12.50;53.40
3868;DHT22;1949;48.152;11.528;2022-12-22T06:31:01;12.50;53.50
3868;DHT22;1949;48.152;11.528;2022-12-22T06:33:26;12.50;53.40
3868;DHT22;1949;48.152;11.528;2022-12-22T06:35:56;12.50;53.40
3868;DHT22;1949;48.152;11.528;2022-12-22T06:38:26;12.50;53.40
3868;DHT22;1949;48.152;11.528;2022-12-22T06:40:53;12.50;53.20
3868;DHT22;1949;48.152;11.528;2022-12-22T06:43:25;12.50;53.30
3868;DHT22;1949;48.152;11.528;2022-12-22T06:45:51;12.50;53.20
3868;DHT22;1949;48.152;11.528;2022-12-22T06:48:20;12.60;53.30
3868;DHT22;1949;48.152;11.528;2022-12-22T06:51:00;12.60;53.20
3868;DHT22;1949;48.152;11.528;2022-12-22T06:53:26;12.60;53.10
3868;DHT22;1949;48.152;11.528;2022-12-22T06:55:52;12.60;53.10
3868;DHT22;1949;48.152;11.528;2022-12-22T06:58:19;12.60;53.00
3868;DHT22;1949;48.152;11.528;2022-12-22T07:00:47;12.60;53.00
3868;DHT22;1949;48.152;11.528;2022-12-22T07:03:20;12.50;52.80
3868;DHT22;1949;48.152;11.528;2022-12-22T07:05:48;12.60;53.00
3868;DHT22;1949;48.152;11.528;2022-12-22T07:08:14;12.60;52.90
3868;DHT22;1949;48.152;11.528;2022-12-22T07:10:40;12.60;52.90
3868;DHT22;1949;48.152;11.528;2022-12-22T07:13:30;12.60;52.90
3868;DHT22;1949;48.152;11.528;2022-12-22T07:16:00;12.60;52.80
3868;DHT22;1949;48.152;11.528;2022-12-22T07:18:53;12.60;52.90
3868;DHT22;1949;48.152;11.528;2022-12-22T07:21:19;12.70;52.90
3868;DHT22;1949;48.152;11.528;2022-12-22T07:23:44;12.70;52.80
3868;DHT22;1949;48.152;11.528;2022-12-22T07:26:11;12.70;52.70
3868;DHT22;1949;48.152;11.528;2022-12-22T07:28:39;12.80;52.70
3868;DHT22;1949;48.152;11.528;2022-12-22T07:31:06;12.80;52.70
3868;DHT22;1949;48.152;11.528;2022-12-22T07:33:33;12.80;52.60
3868;DHT22;1949;48.152;11.528;2022-12-22T07:38:34;12.80;52.50
3868;DHT22;1949;48.152;11.528;2022-12-22T07:41:03;12.90;52.60
3868;DHT22;1949;48.152;11.528;2022-12-22T07:43:29;12.90;52.50
3868;DHT22;1949;48.152;11.528;2022-12-22T07:45:54;12.90;52.50
3868;DHT22;1949;48.152;11.528;2022-12-22T07:48:20;12.90;52.40
3868;DHT22;1949;48.152;11.528;2022-12-22T07:51:05;13.00;52.40
3868;DHT22;1949;48.152;11.528;2022-12-22T07:53:35;12.90;52.30
3868;DHT22;1949;48.152;11.528;2022-12-22T07:56:05;13.00;52.40
3868;DHT22;1949;48.152;11.528;2022-12-22T07:58:32;12.90;52.30
3868;DHT22;1949;48.152;11.528;2022-12-22T08:01:02;13.00;52.30
3868;DHT22;1949;48.152;11.528;2022-12-22T08:03:38;13.00;52.30
3868;DHT22;1949;48.152;11.528;2022-12-22T08:06:04;13.00;52.20
3868;DHT22;1949;48.152;11.528;2022-12-22T08:08:33;13.00;52.20
3868;DHT22;1949;48.152;11.528;2022-12-22T08:11:01;13.00;52.20
3868;DHT22;1949;48.152;11.528;2022-12-22T08:13:27;13.00;52.10
3868;DHT22;1949;48.152;11.528;2022-12-22T08:16:05;13.00;52.10
3868;DHT22;1949;48.152;11.528;2022-12-22T08:18:32;13.00;52.00
3868;DHT22;1949;48.152;11.528;2022-12-22T08:20:59;13.00;52.00
3868;DHT22;1949;48.152;11.528;2022-12-22T08:23:28;13.00;52.00
3868;DHT22;1949;48.152;11.528;2022-12-22T08:26:06;13.10;52.00
3868;DHT22;1949;48.152;11.528;2022-12-22T08:31:33;13.10;52.00
3868;DHT22;1949;48.152;11.528;2022-12-22T08:34:01;13.10;51.90
3868;DHT22;1949;48.152;11.528;2022-12-22T08:36:29;13.10;51.80
3868;DHT22;1949;48.152;11.528;2022-12-22T08:38:56;13.10;51.70
3868;DHT22;1949;48.152;11.528;2022-12-22T08:41:24;13.10;51.70
3868;DHT22;1949;48.152;11.528;2022-12-22T08:44:09;13.10;51.60
3868;DHT22;1949;48.152;11.528;2022-12-22T08:46:35;13.10;51.60
3868;DHT22;1949;48.152;11.528;2022-12-22T08:49:01;13.20;51.70
3868;DHT22;1949;48.152;11.528;2022-12-22T08:51:29;13.20;51.50
3868;DHT22;1949;48.152;11.528;2022-12-22T08:53:55;13.20;51.40
3868;DHT22;1949;48.152;11.528;2022-12-22T08:56:22;13.20;51.30
3868;DHT22;1949;48.152;11.528;2022-12-22T08:58:48;13.20;51.30
3868;DHT22;1949;48.152;11.528;2022-12-22T09:01:19;13.20;51.30
3868;DHT22;1949;48.152;11.528;2022-12-22T09:03:53;13.30;51.30
3868;DHT22;1949;48.152;11.528;2022-12-22T09:06:23;13.30;51.20
3868;DHT22;1949;48.152;11.528;2022-12-22T09:09:04;13.40;51.20
3868;DHT22;1949;48.152;11.528;2022-12-22T09:11:31;13.30;51.00
3868;DHT22;1949;48.152;11.528;2022-12-22T09:13:59;13.40;51.10
3868;DHT22;1949;48.152;11.528;2022-12-22T09:16:32;13.40;51.00
3868;DHT22;1949;48.152;11.528;2022-12-22T09:19:21;13.40;50.90
3868;DHT22;1949;48.152;11.528;2022-12-22T09:21:47;13.40;51.00
3868;DHT22;1949;48.152;11.528;2022-12-22T09:24:26;13.50;51.00
3868;DHT22;1949;48.152;11.528;2022-12-22T09:26:52;13.50;50.90
3868;DHT22;1949;48.152;11.528;2022-12-22T09:29:20;13.50;50.90
3868;DHT22;1949;48.152;11.528;2022-12-22T09:31:46;13.50;50.80
3868;DHT22;1949;48.152;11.528;2022-12-22T09:34:13;13.50;50.70
3868;DHT22;1949;48.152;11.528;2022-12-22T09:36:41;13.60;50.70
3868;DHT22;1949;48.152;11.528;2022-12-22T09:39:08;13.60;50.60
3868;DHT22;1949;48.152;11.528;2022-12-22T09:41:44;13.70;50.70
3868;DHT22;1949;48.152;11.528;2022-12-22T09:44:37;13.60;50.60
3868;DHT22;1949;48.152;11.528;2022-12-22T09:47:35;13.70;50.70
3868;DHT22;1949;48.152;11.528;2022-12-22T09:50:15;13.70;50.60
3868;DHT22;1949;48.152;11.528;2022-12-22T09:52:53;13.70;50.50
3868;DHT22;1949;48.152;11.528;2022-12-22T09:55:37;13.70;50.50
3868;DHT22;1949;48.152;11.528;2022-12-22T09:58:24;13.70;50.50
3868;DHT22;1949;48.152;11.528;2022-12-22T10:06:20;13.80;50.40
3868;DHT22;1949;48.152;11.528;2022-12-22T10:08:54;13.80;50.40
3868;DHT22;1949;48.152;11.528;2022-12-22T10:11:23;13.80;50.40
3868;DHT22;1949;48.152;11.528;2022-12-22T10:13:49;13.80;50.30
3868;DHT22;1949;48.152;11.528;2022-12-22T10:16:22;13.80;50.30
3868;DHT22;1949;48.152;11.528;2022-12-22T10:19:15;13.90;50.30
3868;DHT22;1949;48.152;11.528;2022-12-22T10:21:46;13.90;50.50
3868;DHT22;1949;48.152;11.528;2022-12-22T10:24:38;13.90;50.30
3868;DHT22;1949;48.152;11.528;2022-12-22T10:27:04;13.90;50.40
3868;DHT22;1949;48.152;11.528;2022-12-22T10:29:33;13.90;50.30
3868;DHT22;1949;48.152;11.528;2022-12-22T10:32:02;13.90;50.20
3868;DHT22;1949;48.152;11.528;2022-12-22T10:34:29;13.90;50.20
3868;DHT22;1949;48.152;11.528;2022-12-22T10:37:00;13.90;50.10
3868;DHT22;1949;48.152;11.528;2022-12-22T10:39:33;13.90;50.10
3868;DHT22;1949;48.152;11.528;2022-12-22T10:42:10;14.00;50.20
3868;DHT22;1949;48.152;11.528;2022-12-22T10:44:55;14.00;50.10
3868;DHT22;1949;48.152;11.528;2022-12-22T10:47:32;14.00;50.20
3868;DHT22;1949;48.152;11.528;2022-12-22T10:50:01;14.00;50.00
3868;DHT22;1949;48.152;11.528;2022-12-22T10:52:29;14.00;50.00
3868;DHT22;1949;48.152;11.528;2022-12-22T10:55:19;14.00;49.90
3868;DHT22;1949;48.152;11.528;2022-12-22T11:01:04;14.00;49.80
3868;DHT22;1949;48.152;11.528;2022-12-22T11:03:31;14.10;49.90
3868;DHT22;1949;48.152;11.528;2022-12-22T11:06:10;14.10;49.70
3868;DHT22;1949;48.152;11.528;2022-12-22T11:08:38;14.10;49.60
3868;DHT22;1949;48.152;11.528;2022-12-22T11:11:31;14.10;49.50
3868;DHT22;1949;48.152;11.528;2022-12-22T11:16:46;14.20;49.60
3868;DHT22;1949;48.152;11.528;2022-12-22T11:27:28;14.10;49.70
3868;DHT22;1949;48.152;11.528;2022-12-22T11:33:05;14.00;49.90
3868;DHT22;1949;48.152;11.528;2022-12-22T11:35:57;14.00;50.00
3868;DHT22;1949;48.152;11.528;2022-12-22T11:47:02;13.90;50.20
3868;DHT22;1949;48.152;11.528;2022-12-22T11:53:09;13.80;50.20
3868;DHT22;1949;48.152;11.528;2022-12-22T11:58:42;13.70;50.20
3868;DHT22;1949;48.152;11.528;2022-12-22T12:15:24;13.70;50.30
3868;DHT22;1949;48.152;11.528;2022-12-22T12:18:17;13.70;50.30
3868;DHT22;1949;48.152;11.528;2022-12-22T12:26:31;13.70;50.30
3868;DHT22;1949;48.152;11.528;2022-12-22T12:29:23;13.70;50.30
3868;DHT22;1949;48.152;11.528;2022-12-22T12:31:59;13.70;50.30
3868;DHT22;1949;48.152;11.528;2022-12-22T12:34:40;13.80;50.20
3868;DHT22;1949;48.152;11.528;2022-12-22T12:37:20;13.80;50.20
3868;DHT22;1949;48.152;11.528;2022-12-22T12:42:37;13.90;50.10
3868;DHT22;1949;48.152;11.528;2022-12-22T12:50:45;13.90;50.00
3868;DHT22;1949;48.152;11.528;2022-12-22T12:53:11;13.90;50.00
3868;DHT22;1949;48.152;11.528;2022-12-22T12:58:08;14.00;50.00
3868;DHT22;1949;48.152;11.528;2022-12-22T13:00:39;14.00;49.90
3868;DHT22;1949;48.152;11.528;2022-12-22T13:03:10;14.00;49.80
3868;DHT22;1949;48.152;11.528;2022-12-22T13:05:53;14.00;49.80
3868;DHT22;1949;48.152;11.528;2022-12-22T13:08:22;14.00;49.80
3868;DHT22;1949;48.152;11.528;2022-12-22T13:18:44;14.10;49.70
3868;DHT22;1949;48.152;11.528;2022-12-22T13:21:16;14.10;49.50
3868;DHT22;1949;48.152;11.528;2022-12-22T13:26:38;14.10;49.40
3868;DHT22;1949;48.152;11.528;2022-12-22T13:29:13;14.10;49.30
3868;DHT22;1949;48.152;11.528;2022-12-22T13:31:44;14.10;49.30
3868;DHT22;1949;48.152;11.528;2022-12-22T13:35:20;14.10;49.30
3868;DHT22;1949;48.152;11.528;2022-12-22T13:37:21;14.20;49.30
3868;DHT22;1949;48.152;11.528;2022-12-22T13:40:08;14.20;49.30
3868;DHT22;1949;48.152;11.528;2022-12-22T13:42:37;14.20;49.20
3868;DHT22;1949;48.152;11.528;2022-12-22T13:45:06;14.20;49.20
3868;DHT22;1949;48.152;11.528;2022-12-22T13:47:40;14.20;49.20
3868;DHT22;1949;48.152;11.528;2022-12-22T13:50:19;14.20;49.10
3868;DHT22;1949;48.152;11.528;2022-12-22T13:52:46;14.20;49.10
3868;DHT22;1949;48.152;11.528;2022-12-22T13:55:16;14.20;49.10
3868;DHT22;1949;48.152;11.528;2022-12-22T13:57:42;14.20;49.10
3868;DHT22;1949;48.152;11.528;2022-12-22T14:00:23;14.20;49.10
3868;DHT22;1949;48.152;11.528;2022-12-22T14:02:49;14.20;49.00
3868;DHT22;1949;48.152;11.528;2022-12-22T14:05:16;14.20;48.90
3868;DHT22;1949;48.152;11.528;2022-12-22T14:08:02;14.20;48.90
3868;DHT22;1949;48.152;11.528;2022-12-22T14:10:41;14.20;48.90
3868;DHT22;1949;48.152;11.528;2022-12-22T14:13:15;14.20;48.90
3868;DHT22;1949;48.152;11.528;2022-12-22T14:15:42;14.30;48.90
3868;DHT22;1949;48.152;11.528;2022-12-22T14:18:16;14.30;48.90
3868;DHT22;1949;48.152;11.528;2022-12-22T14:20:45;14.30;48.80
3868;DHT22;1949;48.152;11.528;2022-12-22T14:23:23;14.30;48.70
3868;DHT22;1949;48.152;11.528;2022-12-22T14:25:51;14.20;48.60
3868;DHT22;1949;48.152;11.528;2022-12-22T14:28:22;14.30;48.70
3868;DHT22;1949;48.152;11.528;2022-12-22T14:30:53;14.30;48.70
3868;DHT22;1949;48.152;11.528;2022-12-22T14:35:51;14.20;48.50
3868;DHT22;1949;48.152;11.528;2022-12-22T14:38:19;14.20;48.50
3868;DHT22;1949;48.152;11.528;2022-12-22T14:40:45;14.20;48.50
3868;DHT22;1949;48.152;11.528;2022-12-22T14:45:46;14.20;48.50
3868;DHT22;1949;48.152;11.528;2022-12-22T14:48:26;14.20;48.50
3868;DHT22;1949;48.152;11.528;2022-12-22T14:50:53;14.20;48.50
3868;DHT22;1949;48.152;11.528;2022-12-22T14:53:57;14.20;48.50
3868;DHT22;1949;48.152;11.528;2022-12-22T14:56:25;14.20;48.70
3868;DHT22;1949;48.152;11.528;2022-12-22T14:59:10;14.20;48.50
3868;DHT22;1949;48.152;11.528;2022-12-22T15:01:36;14.30;48.60
3868;DHT22;1949;48.152;11.528;2022-12-22T15:11:33;14.30;48.50
3868;DHT22;1949;48.152;11.528;2022-12-22T15:14:00;14.30;48.50
3868;DHT22;1949;48.152;11.528;2022-12-22T15:16:26;14.30;48.50
3868;DHT22;1949;48.152;11.528;2022-12-22T15:18:52;14.30;48.50
3868;DHT22;1949;48.152;11.528;2022-12-22T15:21:18;14.30;48.20
3868;DHT22;1949;48.152;11.528;2022-12-22T15:23:47;14.30;48.50
3868;DHT22;1949;48.152;11.528;2022-12-22T15:26:13;14.30;48.50
3868;DHT22;1949;48.152;11.528;2022-12-22T15:28:39;14.30;48.50
3868;DHT22;1949;48.152;11.528;2022-12-22T15:31:15;14.30;48.50
3868;DHT22;1949;48.152;11.528;2022-12-22T15:33:42;14.30;48.40
3868;DHT22;1949;48.152;11.528;2022-12-22T15:36:13;14.30;48.40
3868;DHT22;1949;48.152;11.528;2022-12-22T15:38:40;14.30;48.30
3868;DHT22;1949;48.152;11.528;2022-12-22T15:41:06;14.30;48.20
3868;DHT22;1949;48.152;11.528;2022-12-22T15:43:32;14.30;48.30
3868;DHT22;1949;48.152;11.528;2022-12-22T15:45:59;14.30;48.40
3868;DHT22;1949;48.152;11.528;2022-12-22T15:48:28;14.30;48.40
3868;DHT22;1949;48.152;11.528;2022-12-22T15:50:56;14.30;48.90
3868;DHT22;1949;48.152;11.528;2022-12-22T15:53:22;14.30;48.30
3868;DHT22;1949;48.152;11.528;2022-12-22T15:55:53;14.30;48.30
3868;DHT22;1949;48.152;11.528;2022-12-22T15:58:25;14.20;48.20
3868;DHT22;1949;48.152;11.528;2022-12-22T16:00:54;14.30;48.30
3868;DHT22;1949;48.152;11.528;2022-12-22T16:03:20;14.30;48.30
3868;DHT22;1949;48.152;11.528;2022-12-22T16:05:46;14.30;48.30
3868;DHT22;1949;48.152;11.528;2022-12-22T16:08:17;14.20;48.20
3868;DHT22;1949;48.152;11.528;2022-12-22T16:10:45;14.20;48.30
3868;DHT22;1949;48.152;11.528;2022-12-22T16:13:13;14.20;48.30
3868;DHT22;1949;48.152;11.528;2022-12-22T16:15:40;14.20;48.20
3868;DHT22;1949;48.152;11.528;2022-12-22T16:18:06;14.30;48.40
3868;DHT22;1949;48.152;11.528;2022-12-22T16:20:38;14.20;48.30
3868;DHT22;1949;48.152;11.528;2022-12-22T16:23:05;14.20;48.30
3868;DHT22;1949;48.152;11.528;2022-12-22T16:25:36;14.20;48.40
3868;DHT22;1949;48.152;11.528;2022-12-22T16:28:04;14.20;48.30
3868;DHT22;1949;48.152;11.528;2022-12-22T16:30:33;14.30;48.40
3868;DHT22;1949;48.152;11.528;2022-12-22T16:32:59;14.20;48.30
3868;DHT22;1949;48.152;11.528;2022-12-22T16:35:28;14.30;48.40
3868;DHT22;1949;48.152;11.528;2022-12-22T16:37:57;14.30;48.50
3868;DHT22;1949;48.152;11.528;2022-12-22T16:40:23;14.30;48.40
3868;DHT22;1949;48.152;11.528;2022-12-22T16:43:02;14.30;48.40
3868;DHT22;1949;48.152;11.528;2022-12-22T16:45:30;14.20;48.20
3868;DHT22;1949;48.152;11.528;2022-12-22T16:47:59;14.20;48.30
3868;DHT22;1949;48.152;11.528;2022-12-22T16:50:28;14.20;48.30
3868;DHT22;1949;48.152;11.528;2022-12-22T16:53:03;14.20;48.30
3868;DHT22;1949;48.152;11.528;2022-12-22T16:55:29;14.20;48.30
3868;DHT22;1949;48.152;11.528;2022-12-22T16:57:56;14.10;48.30
3868;DHT22;1949;48.152;11.528;2022-12-22T17:00:28;14.10;48.30
3868;DHT22;1949;48.152;11.528;2022-12-22T17:03:24;14.10;48.40
3868;DHT22;1949;48.152;11.528;2022-12-22T17:05:53;14.20;48.50
3868;DHT22;1949;48.152;11.528;2022-12-22T17:08:46;14.20;48.40
3868;DHT22;1949;48.152;11.528;2022-12-22T17:11:19;14.20;48.60
3868;DHT22;1949;48.152;11.528;2022-12-22T17:13:46;14.20;48.50
3868;DHT22;1949;48.152;11.528;2022-12-22T17:16:21;14.20;48.50
3868;DHT22;1949;48.152;11.528;2022-12-22T17:18:48;14.20;48.40
3868;DHT22;1949;48.152;11.528;2022-12-22T17:21:18;14.20;48.50
3868;DHT22;1949;48.152;11.528;2022-12-22T17:23:52;14.20;48.50
3868;DHT22;1949;48.152;11.528;2022-12-22T17:26:21;14.20;48.50
3868;DHT22;1949;48.152;11.528;2022-12-22T17:28:49;14.20;48.50
3868;DHT22;1949;48.152;11.528;2022-12-22T17:31:18;14.20;48.50
3868;DHT22;1949;48.152;11.528;2022-12-22T17:33:45;14.20;48.50
3868;DHT22;1949;48.152;11.528;2022-12-22T17:36:18;14.20;48.40
3868;DHT22;1949;48.152;11.528;2022-12-22T17:38:45;14.20;48.50
3868;DHT22;1949;48.152;11.528;2022-12-22T17:41:15;14.20;48.40
3868;DHT22;1949;48.152;11.528;2022-12-22T17:43:43;14.20;48.40
3868;DHT22;1949;48.152;11.528;2022-12-22T17:46:16;14.20;48.40
3868;DHT22;1949;48.152;11.528;2022-12-22T17:48:43;14.20;48.50
3868;DHT22;1949;48.152;11.528;2022-12-22T17:51:22;14.20;48.50
3868;DHT22;1949;48.152;11.528;2022-12-22T17:53:49;14.20;48.50
3868;DHT22;1949;48.152;11.528;2022-12-22T17:56:20;14.20;48.50
3868;DHT22;1949;48.152;11.528;2022-12-22T17:58:49;14.10;48.50
3868;DHT22;1949;48.152;11.528;2022-12-22T18:01:28;14.10;48.70
3868;DHT22;1949;48.152;11.528;2022-12-22T18:03:55;14.20;48.70
3868;DHT22;1949;48.152;11.528;2022-12-22T18:06:24;14.20;48.60
3868;DHT22;1949;48.152;11.528;2022-12-22T18:08:52;14.20;48.60
3868;DHT22;1949;48.152;11.528;2022-12-22T18:11:21;14.20;48.60
3868;DHT22;1949;48.152;11.528;2022-12-22T18:13:47;14.20;48.60
3868;DHT22;1949;48.152;11.528;2022-12-22T18:16:16;14.30;48.60
3868;DHT22;1949;48.152;11.528;2022-12-22T18:18:42;14.20;48.50
3868;DHT22;1949;48.152;11.528;2022-12-22T18:21:20;14.30;48.60
3868;DHT22;1949;48.152;11.528;2022-12-22T18:23:46;14.30;48.60
3868;DHT22;1949;48.152;11.528;2022-12-22T18:26:26;14.30;48.70
3868;DHT22;1949;48.152;11.528;2022-12-22T18:28:53;14.30;48.60